createdAt,value
2023-01-28T00:02:09.851Z,102312.88
2023-01-28T00:04:38.713Z,102299.88
2023-01-28T00:07:06.463Z,102307.00
2023-01-28T00:09:33.939Z,102299.91
2023-01-28T00:12:01.517Z,102298.19
2023-01-28T00:14:29.673Z,102303.28
2023-01-28T00:16:57.250Z,102297.47
2023-01-28T00:19:24.713Z,102300.16
2023-01-28T00:21:53.510Z,102299.53
2023-01-28T00:24:21.339Z,102305.56
2023-01-28T00:26:48.804Z,102307.66
2023-01-28T00:29:16.249Z,102314.47
2023-01-28T00:31:43.795Z,102313.81
2023-01-28T00:34:11.271Z,102320.94
2023-01-28T00:36:39.391Z,102311.31
2023-01-28T00:39:08.180Z,102315.97
2023-01-28T00:41:36.171Z,102321.50
2023-01-28T00:44:03.657Z,102322.38
2023-01-28T00:46:31.297Z,102311.81
2023-01-28T00:48:59.084Z,102316.28
2023-01-28T00:51:26.577Z,102315.75
2023-01-28T00:53:54.362Z,102315.06
2023-01-28T00:56:23.162Z,102318.19
2023-01-28T00:58:50.667Z,102322.59
2023-01-28T01:01:20.460Z,102326.44
2023-01-28T01:03:54.340Z,102325.34
2023-01-28T01:06:22.492Z,102325.91
2023-01-28T01:08:51.068Z,102318.22
2023-01-28T01:11:18.952Z,102315.53
2023-01-28T01:13:51.202Z,102317.47
2023-01-28T01:16:18.725Z,102321.69
2023-01-28T01:18:46.220Z,102326.22
2023-01-28T01:21:17.541Z,102313.94
2023-01-28T01:23:45.992Z,102318.34
2023-01-28T01:26:13.620Z,102323.31
2023-01-28T01:28:41.513Z,102325.91
2023-01-28T01:31:15.087Z,102324.06
2023-01-28T01:33:45.791Z,102314.56
2023-01-28T01:36:14.860Z,102319.03
2023-01-28T01:38:42.784Z,102322.56
2023-01-28T01:41:17.961Z,102328.09
2023-01-28T01:43:50.227Z,102330.25
2023-01-28T01:46:24.923Z,102321.72
2023-01-28T01:48:53.501Z,102332.56
2023-01-28T01:51:24.183Z,102334.34
2023-01-28T01:53:56.206Z,102337.09
2023-01-28T01:56:29.065Z,102337.44
2023-01-28T01:58:58.276Z,102336.59
2023-01-28T02:01:31.879Z,102337.22
2023-01-28T02:04:06.207Z,102342.19
2023-01-28T02:06:35.837Z,102341.97
2023-01-28T02:09:03.848Z,102335.13
2023-01-28T02:11:34.571Z,102338.84
2023-01-28T02:14:05.944Z,102334.97
2023-01-28T02:16:35.077Z,102329.69
2023-01-28T02:19:03.018Z,102326.03
2023-01-28T02:21:58.504Z,102321.22
2023-01-28T02:24:49.788Z,102325.75
2023-01-28T02:27:28.074Z,102327.19
2023-01-28T02:30:03.935Z,102335.22
2023-01-28T02:32:37.844Z,102326.88
2023-01-28T02:35:14.153Z,102326.69
2023-01-28T02:37:48.614Z,102326.56
2023-01-28T02:40:21.131Z,102330.94
2023-01-28T02:42:49.187Z,102334.09
2023-01-28T02:45:21.349Z,102342.59
2023-01-28T02:47:59.901Z,102345.97
2023-01-28T02:50:38.234Z,102335.56
2023-01-28T02:53:36.700Z,102334.13
2023-01-28T02:56:13.167Z,102338.72
2023-01-28T02:58:46.697Z,102334.22
2023-01-28T03:01:23.782Z,102346.19
2023-01-28T03:04:00.208Z,102343.81
2023-01-28T03:06:35.700Z,102337.41
2023-01-28T03:09:26.986Z,102345.34
2023-01-28T03:12:15.509Z,102345.38
2023-01-28T03:15:08.413Z,102337.84
2023-01-28T03:18:00.606Z,102331.09
2023-01-28T03:20:52.072Z,102340.69
2023-01-28T03:23:45.877Z,102342.59
2023-01-28T03:26:32.573Z,102335.97
2023-01-28T03:29:25.498Z,102342.22
2023-01-28T03:32:12.787Z,102348.66
2023-01-28T03:34:59.909Z,102332.88
2023-01-28T03:37:28.614Z,102339.22
2023-01-28T03:39:58.043Z,102339.13
2023-01-28T03:42:25.566Z,102342.44
2023-01-28T03:44:53.217Z,102345.13
2023-01-28T03:47:21.877Z,102338.47
2023-01-28T03:49:52.820Z,102335.94
2023-01-28T03:52:22.622Z,102343.34
2023-01-28T03:54:50.322Z,102344.56
2023-01-28T03:57:19.417Z,102345.13
2023-01-28T03:59:49.749Z,102334.88
2023-01-28T04:02:18.227Z,102334.31
2023-01-28T04:04:45.744Z,102336.38
2023-01-28T04:07:15.480Z,102340.72
2023-01-28T04:09:43.862Z,102333.16
2023-01-28T04:12:11.763Z,102335.59
2023-01-28T04:14:40.348Z,102335.69
2023-01-28T04:17:08.732Z,102337.28
2023-01-28T04:19:37.886Z,102336.31
2023-01-28T04:22:07.380Z,102336.09
2023-01-28T04:24:36.241Z,102334.38
2023-01-28T04:27:03.693Z,102334.09
2023-01-28T04:29:31.663Z,102334.25
2023-01-28T04:31:59.079Z,102345.31
2023-01-28T04:34:26.550Z,102348.09
2023-01-28T04:36:53.957Z,102347.53
2023-01-28T04:39:21.350Z,102356.59
2023-01-28T04:41:50.127Z,102345.44
2023-01-28T04:44:17.741Z,102334.25
2023-01-28T04:46:45.223Z,102341.94
2023-01-28T04:49:12.679Z,102334.75
2023-01-28T04:51:40.106Z,102337.22
2023-01-28T04:54:07.769Z,102336.94
2023-01-28T04:56:35.187Z,102343.47
2023-01-28T04:59:03.978Z,102331.00
2023-01-28T05:01:31.538Z,102331.59
2023-01-28T05:03:59.651Z,102330.13
2023-01-28T05:06:27.052Z,102340.31
2023-01-28T05:08:54.445Z,102347.28
2023-01-28T05:11:21.903Z,102348.69
2023-01-28T05:13:49.390Z,102346.53
2023-01-28T05:16:18.357Z,102350.34
2023-01-28T05:18:47.949Z,102361.72
2023-01-28T05:21:15.390Z,102366.31
2023-01-28T05:23:42.831Z,102361.34
2023-01-28T05:26:10.477Z,102361.94
2023-01-28T05:28:37.998Z,102362.34
2023-01-28T05:31:07.059Z,102367.78
2023-01-28T05:33:35.967Z,102363.66
2023-01-28T05:36:03.533Z,102358.97
2023-01-28T05:38:31.338Z,102367.28
2023-01-28T05:40:58.760Z,102366.09
2023-01-28T05:43:26.293Z,102353.97
2023-01-28T05:45:53.752Z,102350.53
2023-01-28T05:48:21.190Z,102356.50
2023-01-28T05:50:50.029Z,102361.75
2023-01-28T05:53:17.552Z,102359.03
2023-01-28T05:55:45.362Z,102355.03
2023-01-28T05:58:12.812Z,102363.41
2023-01-28T06:00:40.203Z,102359.84
2023-01-28T06:03:07.604Z,102360.47
2023-01-28T06:05:35.029Z,102357.31
2023-01-28T06:08:04.192Z,102357.53
2023-01-28T06:10:31.873Z,102355.91
2023-01-28T06:12:59.471Z,102358.75
2023-01-28T06:15:27.053Z,102358.63
2023-01-28T06:17:54.544Z,102360.97
2023-01-28T06:20:22.008Z,102369.19
2023-01-28T06:22:51.434Z,102369.56
2023-01-28T06:25:20.680Z,102371.63
2023-01-28T06:27:48.144Z,102379.91
2023-01-28T06:30:16.039Z,102374.41
2023-01-28T06:32:44.689Z,102376.31
2023-01-28T06:35:12.160Z,102371.38
2023-01-28T06:37:39.806Z,102370.34
2023-01-28T06:40:08.521Z,102373.88
2023-01-28T06:42:37.273Z,102377.69
2023-01-28T06:45:05.140Z,102381.25
2023-01-28T06:47:32.567Z,102378.50
2023-01-28T06:50:00.040Z,102384.16
2023-01-28T06:52:27.443Z,102380.63
2023-01-28T06:54:54.877Z,102394.38
2023-01-28T06:57:22.294Z,102380.75
2023-01-28T06:59:51.031Z,102375.94
2023-01-28T07:02:18.486Z,102387.22
2023-01-28T07:04:46.632Z,102384.56
2023-01-28T07:07:14.065Z,102382.91
2023-01-28T07:09:41.611Z,102384.25
2023-01-28T07:12:09.051Z,102394.47
2023-01-28T07:14:36.478Z,102385.78
2023-01-28T07:17:05.257Z,102388.41
2023-01-28T07:19:32.717Z,102397.16
2023-01-28T07:22:02.978Z,102387.72
2023-01-28T07:24:30.739Z,102388.91
2023-01-28T07:26:58.193Z,102394.59
2023-01-28T07:29:25.635Z,102390.56
2023-01-28T07:31:53.291Z,102388.16
2023-01-28T07:34:22.069Z,102384.59
2023-01-28T07:36:49.486Z,102387.72
2023-01-28T07:39:16.893Z,102385.31
2023-01-28T07:41:44.318Z,102389.66
2023-01-28T07:44:11.945Z,102385.66
2023-01-28T07:46:39.405Z,102384.69
2023-01-28T07:49:06.845Z,102386.25
2023-01-28T07:51:35.592Z,102392.78
2023-01-28T07:54:03.026Z,102399.63
2023-01-28T07:56:32.033Z,102392.94
2023-01-28T07:58:59.432Z,102385.97
2023-01-28T08:01:27.097Z,102387.22
2023-01-28T08:03:54.528Z,102395.38
2023-01-28T08:06:22.007Z,102396.41
2023-01-28T08:08:50.752Z,102403.75
2023-01-28T08:11:18.161Z,102404.06
2023-01-28T08:13:45.595Z,102402.66
2023-01-28T08:16:13.152Z,102414.19
2023-01-28T08:18:40.613Z,102406.25
2023-01-28T08:21:08.292Z,102413.16
2023-01-28T08:23:35.845Z,102412.03
2023-01-28T08:26:04.627Z,102412.22
2023-01-28T08:28:32.144Z,102411.97
2023-01-28T08:31:00.791Z,102415.59
2023-01-28T08:33:28.947Z,102423.34
2023-01-28T08:35:56.446Z,102431.19
2023-01-28T08:38:24.084Z,102426.09
2023-01-28T08:40:54.008Z,102437.78
2023-01-28T08:43:22.947Z,102436.88
2023-01-28T08:45:50.722Z,102432.50
2023-01-28T08:48:20.089Z,102427.34
2023-01-28T08:50:47.602Z,102424.19
2023-01-28T08:53:16.933Z,102424.28
2023-01-28T08:55:45.089Z,102428.72
2023-01-28T08:58:14.549Z,102441.03
2023-01-28T09:00:44.465Z,102434.47
2023-01-28T09:03:12.099Z,102437.25
2023-01-28T09:05:39.931Z,102443.00
2023-01-28T09:08:10.449Z,102460.03
2023-01-28T09:10:38.677Z,102455.72
2023-01-28T09:13:06.429Z,102459.16
2023-01-28T09:15:33.885Z,102452.22
2023-01-28T09:18:02.839Z,102447.63
2023-01-28T09:20:30.359Z,102453.44
2023-01-28T09:22:59.890Z,102466.88
2023-01-28T09:25:27.643Z,102463.50
2023-01-28T09:27:55.133Z,102465.97
2023-01-28T09:30:23.026Z,102480.38
2023-01-28T09:32:52.257Z,102466.69
2023-01-28T09:35:21.435Z,102466.44
2023-01-28T09:37:49.432Z,102484.53
2023-01-28T09:40:19.778Z,102480.09
2023-01-28T09:43:00.314Z,102476.69
2023-01-28T09:45:37.416Z,102463.34
2023-01-28T09:48:06.841Z,102472.94
2023-01-28T09:50:39.391Z,102475.41
2023-01-28T09:53:11.473Z,102475.41
2023-01-28T09:55:41.903Z,102474.41
2023-01-28T09:58:12.696Z,102477.38
2023-01-28T10:00:46.319Z,102487.97
2023-01-28T10:03:33.372Z,102485.03
2023-01-28T10:06:14.505Z,102482.47
2023-01-28T10:09:01.097Z,102461.03
2023-01-28T10:11:44.119Z,102470.56
2023-01-28T10:14:20.820Z,102461.38
2023-01-28T10:16:53.448Z,102469.13
2023-01-28T10:19:25.839Z,102466.22
2023-01-28T10:22:00.791Z,102468.94
2023-01-28T10:24:32.732Z,102470.63
2023-01-28T10:27:00.598Z,102463.50
2023-01-28T10:29:32.193Z,102452.81
2023-01-28T10:32:02.932Z,102451.53
2023-01-28T10:34:30.392Z,102453.47
2023-01-28T10:36:59.636Z,102450.84
2023-01-28T10:39:27.768Z,102439.47
2023-01-28T10:41:59.098Z,102441.56
2023-01-28T10:44:35.707Z,102451.78
2023-01-28T10:47:09.282Z,102451.06
2023-01-28T10:49:42.302Z,102446.25
2023-01-28T10:52:15.169Z,102450.97
2023-01-28T10:54:42.948Z,102446.44
2023-01-28T10:57:13.559Z,102443.03
2023-01-28T10:59:42.818Z,102444.34
2023-01-28T11:02:26.727Z,102442.19
2023-01-28T11:05:02.646Z,102440.69
2023-01-28T11:07:31.673Z,102445.78
2023-01-28T11:09:59.195Z,102456.34
2023-01-28T11:12:28.467Z,102448.53
2023-01-28T11:14:58.230Z,102444.09
2023-01-28T11:17:29.202Z,102448.72
2023-01-28T11:19:59.367Z,102452.13
2023-01-28T11:22:33.758Z,102456.94
2023-01-28T11:25:02.815Z,102442.78
2023-01-28T11:27:32.622Z,102444.38
2023-01-28T11:30:04.404Z,102448.69
2023-01-28T11:32:32.487Z,102449.72
2023-01-28T11:35:00.506Z,102442.06
2023-01-28T11:37:30.119Z,102440.03
2023-01-28T11:40:21.442Z,102435.69
2023-01-28T11:42:50.979Z,102432.34
2023-01-28T11:45:19.956Z,102438.50
2023-01-28T11:48:01.821Z,102429.06
2023-01-28T11:50:38.335Z,102420.75
2023-01-28T11:53:28.668Z,102429.94
2023-01-28T11:56:14.606Z,102429.09
2023-01-28T11:58:52.799Z,102423.72
2023-01-28T12:01:30.260Z,102420.16
2023-01-28T12:04:18.247Z,102413.38
2023-01-28T12:07:01.922Z,102410.41
2023-01-28T12:09:43.806Z,102409.31
2023-01-28T12:12:23.992Z,102415.22
2023-01-28T12:15:06.968Z,102405.13
2023-01-28T12:17:49.447Z,102399.88
2023-01-28T12:20:25.693Z,102390.66
2023-01-28T12:23:19.087Z,102403.78
2023-01-28T12:26:02.655Z,102415.97
2023-01-28T12:28:45.509Z,102408.50
2023-01-28T12:31:32.532Z,102406.56
2023-01-28T12:34:32.829Z,102415.38
2023-01-28T12:37:08.660Z,102402.63
2023-01-28T12:39:50.292Z,102389.00
2023-01-28T12:42:27.273Z,102391.84
2023-01-28T12:45:01.472Z,102404.72
2023-01-28T12:47:35.416Z,102382.34
2023-01-28T12:50:12.211Z,102379.59
2023-01-28T12:52:44.675Z,102383.28
2023-01-28T12:55:17.236Z,102377.25
2023-01-28T12:57:45.621Z,102372.47
2023-01-28T13:00:27.324Z,102380.22
2023-01-28T13:03:11.787Z,102376.16
2023-01-28T13:05:44.767Z,102372.72
2023-01-28T13:08:17.796Z,102358.91
2023-01-28T13:10:46.779Z,102353.03
2023-01-28T13:13:18.722Z,102362.19
2023-01-28T13:15:48.001Z,102337.94
2023-01-28T13:18:32.837Z,102343.03
2023-01-28T13:21:01.458Z,102337.59
2023-01-28T13:23:39.265Z,102339.13
2023-01-28T13:26:13.538Z,102343.97
2023-01-28T13:28:40.928Z,102346.78
2023-01-28T13:31:17.301Z,102350.28
2023-01-28T13:33:48.622Z,102338.22
2023-01-28T13:36:27.027Z,102333.72
2023-01-28T13:39:03.530Z,102337.72
2023-01-28T13:41:41.648Z,102345.94
2023-01-28T13:44:27.481Z,102338.19
2023-01-28T13:47:00.654Z,102342.44
2023-01-28T13:49:35.274Z,102339.47
2023-01-28T13:52:08.962Z,102341.41
2023-01-28T13:54:38.843Z,102343.88
2023-01-28T13:57:28.168Z,102328.34
2023-01-28T14:00:07.102Z,102323.03
2023-01-28T14:02:57.005Z,102327.78
2023-01-28T14:06:12.887Z,102322.22
2023-01-28T14:08:57.265Z,102324.72
2023-01-28T14:11:47.192Z,102320.41
2023-01-28T14:14:38.829Z,102309.59
2023-01-28T14:17:14.280Z,102315.53
2023-01-28T14:19:44.753Z,102310.78
2023-01-28T14:22:19.699Z,102313.81
2023-01-28T14:24:47.664Z,102321.38
2023-01-28T14:27:20.949Z,102306.50
2023-01-28T14:30:00.725Z,102302.31
2023-01-28T14:32:30.954Z,102328.13
2023-01-28T14:35:05.632Z,102332.38
2023-01-28T14:37:34.048Z,102337.69
2023-01-28T14:40:03.530Z,102336.22
2023-01-28T14:42:33.774Z,102328.59
2023-01-28T14:45:15.176Z,102338.78
2023-01-28T14:47:55.759Z,102346.34
2023-01-28T14:50:51.300Z,102349.41
2023-01-28T14:53:31.803Z,102344.38
2023-01-28T14:56:10.579Z,102339.56
2023-01-28T14:58:43.154Z,102338.91
2023-01-28T15:01:21.762Z,102342.47
2023-01-28T15:03:49.314Z,102335.84
2023-01-28T15:06:21.574Z,102335.03
2023-01-28T15:08:49.510Z,102339.34
2023-01-28T15:11:20.740Z,102344.78
2023-01-28T15:13:50.562Z,102339.91
2023-01-28T15:16:21.326Z,102337.56
2023-01-28T15:18:50.824Z,102340.50
2023-01-28T15:21:22.669Z,102331.03
2023-01-28T15:23:53.540Z,102334.34
2023-01-28T15:26:23.092Z,102337.25
2023-01-28T15:28:52.567Z,102329.44
2023-01-28T15:31:22.116Z,102336.41
2023-01-28T15:33:57.535Z,102331.41
2023-01-28T15:36:27.040Z,102332.75
2023-01-28T15:38:55.096Z,102328.66
2023-01-28T15:41:25.289Z,102329.69
2023-01-28T15:43:53.789Z,102343.22
2023-01-28T15:46:21.452Z,102338.78
2023-01-28T15:48:52.748Z,102339.31
2023-01-28T15:51:24.500Z,102355.44
2023-01-28T15:53:57.556Z,102360.66
2023-01-28T15:56:27.918Z,102365.56
2023-01-28T15:58:56.168Z,102365.38
2023-01-28T16:01:24.442Z,102356.44
2023-01-28T16:04:03.024Z,102370.84
2023-01-28T16:06:33.642Z,102374.75
2023-01-28T16:09:04.964Z,102385.75
2023-01-28T16:11:37.265Z,102381.25
2023-01-28T16:14:05.235Z,102372.22
2023-01-28T16:16:35.349Z,102369.75
2023-01-28T16:19:05.782Z,102379.56
2023-01-28T16:21:37.898Z,102378.06
2023-01-28T16:24:20.847Z,102365.44
2023-01-28T16:26:57.369Z,102349.66
2023-01-28T16:29:24.813Z,102345.16
2023-01-28T16:31:52.301Z,102353.38
2023-01-28T16:34:19.817Z,102350.88
2023-01-28T16:36:47.298Z,102351.50
2023-01-28T16:39:16.050Z,102366.94
2023-01-28T16:41:45.147Z,102366.94
2023-01-28T16:44:14.466Z,102374.88
2023-01-28T16:46:42.047Z,102367.09
2023-01-28T16:49:10.466Z,102371.41
2023-01-28T16:51:39.540Z,102369.50
2023-01-28T16:54:07.387Z,102385.38
2023-01-28T16:56:45.982Z,102383.66
2023-01-28T16:59:15.731Z,102378.59
2023-01-28T17:01:43.609Z,102382.81
2023-01-28T17:04:12.774Z,102393.59
2023-01-28T17:06:42.999Z,102397.22
2023-01-28T17:09:10.880Z,102405.25
2023-01-28T17:11:40.718Z,102411.44
2023-01-28T17:14:08.322Z,102412.81
2023-01-28T17:16:35.956Z,102410.81
2023-01-28T17:19:03.827Z,102412.44
2023-01-28T17:21:31.302Z,102409.09
2023-01-28T17:23:59.459Z,102422.97
2023-01-28T17:26:28.915Z,102431.03
2023-01-28T17:28:57.739Z,102438.63
2023-01-28T17:31:26.317Z,102435.28
2023-01-28T17:33:55.674Z,102437.63
2023-01-28T17:36:23.749Z,102438.97
2023-01-28T17:38:51.354Z,102443.03
2023-01-28T17:41:19.324Z,102432.25
2023-01-28T17:43:51.808Z,102422.63
2023-01-28T17:46:22.133Z,102422.97
2023-01-28T17:48:49.560Z,102420.75
2023-01-28T17:51:18.677Z,102428.38
2023-01-28T17:53:46.808Z,102409.34
2023-01-28T17:56:18.741Z,102406.06
2023-01-28T17:58:50.721Z,102410.84
2023-01-28T18:01:18.373Z,102416.19
2023-01-28T18:03:47.176Z,102419.13
2023-01-28T18:06:14.656Z,102421.56
2023-01-28T18:08:42.078Z,102427.50
2023-01-28T18:11:10.663Z,102433.19
2023-01-28T18:13:38.256Z,102421.41
2023-01-28T18:16:07.570Z,102414.00
2023-01-28T18:18:35.446Z,102408.03
2023-01-28T18:21:06.955Z,102405.91
2023-01-28T18:23:35.161Z,102413.97
2023-01-28T18:26:07.237Z,102415.06
2023-01-28T18:28:34.718Z,102407.44
2023-01-28T18:31:05.844Z,102411.47
2023-01-28T18:33:33.348Z,102417.44
2023-01-28T18:36:00.837Z,102413.41
2023-01-28T18:38:29.662Z,102422.97
2023-01-28T18:40:57.556Z,102420.56
2023-01-28T18:43:25.007Z,102414.19
2023-01-28T18:45:52.455Z,102403.44
2023-01-28T18:48:20.406Z,102411.34
2023-01-28T18:50:51.058Z,102416.75
2023-01-28T18:53:18.564Z,102425.88
2023-01-28T18:55:47.441Z,102421.16
2023-01-28T18:58:14.980Z,102428.81
2023-01-28T19:00:42.423Z,102429.13
2023-01-28T19:03:09.816Z,102418.69
2023-01-28T19:05:37.551Z,102400.06
2023-01-28T19:08:06.685Z,102407.47
2023-01-28T19:10:34.197Z,102405.38
2023-01-28T19:13:03.066Z,102409.88
2023-01-28T19:15:30.927Z,102408.69
2023-01-28T19:17:58.810Z,102393.38
2023-01-28T19:20:26.445Z,102408.41
2023-01-28T19:22:53.883Z,102408.22
2023-01-28T19:25:21.429Z,102414.31
2023-01-28T19:27:48.883Z,102414.00
2023-01-28T19:30:18.266Z,102405.06
2023-01-28T19:32:45.705Z,102408.59
2023-01-28T19:35:13.402Z,102401.75
2023-01-28T19:37:41.039Z,102396.53
2023-01-28T19:40:09.820Z,102401.16
2023-01-28T19:42:37.301Z,102406.72
2023-01-28T19:45:06.259Z,102407.13
2023-01-28T19:47:35.280Z,102413.03
2023-01-28T19:50:02.750Z,102415.00
2023-01-28T19:52:31.328Z,102415.56
2023-01-28T19:55:01.613Z,102420.66
2023-01-28T19:57:29.079Z,102422.84
2023-01-28T19:59:56.511Z,102425.59
2023-01-28T20:02:23.972Z,102419.50
2023-01-28T20:05:00.570Z,102431.88
2023-01-28T20:07:28.504Z,102440.06
2023-01-28T20:09:56.054Z,102444.28
2023-01-28T20:12:23.570Z,102456.88
2023-01-28T20:14:50.956Z,102442.69
2023-01-28T20:17:18.468Z,102432.06
2023-01-28T20:19:45.908Z,102430.03
2023-01-28T20:22:14.649Z,102423.78
2023-01-28T20:24:42.085Z,102424.69
2023-01-28T20:27:09.609Z,102426.28
2023-01-28T20:29:37.045Z,102414.81
2023-01-28T20:32:16.261Z,102420.84
2023-01-28T20:34:45.089Z,102408.75
2023-01-28T20:37:12.534Z,102411.97
2023-01-28T20:39:44.391Z,102403.94
2023-01-28T20:42:13.289Z,102402.22
2023-01-28T20:44:40.797Z,102396.75
2023-01-28T20:47:09.290Z,102411.81
2023-01-28T20:49:36.700Z,102414.84
2023-01-28T20:52:05.727Z,102408.94
2023-01-28T20:54:33.205Z,102403.06
2023-01-28T20:57:01.977Z,102402.28
2023-01-28T20:59:31.156Z,102405.38
2023-01-28T21:01:58.595Z,102407.63
2023-01-28T21:04:26.098Z,102415.06
2023-01-28T21:06:53.502Z,102409.66
2023-01-28T21:09:22.612Z,102413.59
2023-01-28T21:11:50.060Z,102402.81
2023-01-28T21:14:18.981Z,102404.56
2023-01-28T21:16:47.296Z,102392.72
2023-01-28T21:19:14.817Z,102399.44
2023-01-28T21:21:42.905Z,102393.53
2023-01-28T21:24:11.835Z,102398.31
2023-01-28T21:26:39.370Z,102380.78
2023-01-28T21:29:07.080Z,102373.22
2023-01-28T21:31:35.788Z,102365.91
2023-01-28T21:34:03.221Z,102383.66
2023-01-28T21:36:33.631Z,102373.56
2023-01-28T21:39:02.960Z,102382.59
2023-01-28T21:41:30.466Z,102383.41
2023-01-28T21:43:58.590Z,102372.88
2023-01-28T21:46:27.795Z,102384.66
2023-01-28T21:48:57.761Z,102390.88
2023-01-28T21:51:39.234Z,102387.53
2023-01-28T21:54:08.815Z,102382.31
2023-01-28T21:56:36.289Z,102380.88
2023-01-28T21:59:21.603Z,102387.59
2023-01-28T22:01:49.196Z,102390.19
2023-01-28T22:04:17.981Z,102374.97
2023-01-28T22:06:45.463Z,102383.34
2023-01-28T22:09:14.051Z,102375.38
2023-01-28T22:11:42.946Z,102372.09
2023-01-28T22:14:10.710Z,102368.81
2023-01-28T22:16:38.378Z,102364.72
2023-01-28T22:19:06.041Z,102361.00
2023-01-28T22:21:40.775Z,102348.50
2023-01-28T22:24:13.647Z,102363.38
2023-01-28T22:26:41.949Z,102363.59
2023-01-28T22:29:09.936Z,102363.03
2023-01-28T22:31:37.730Z,102367.16
2023-01-28T22:34:05.940Z,102359.06
2023-01-28T22:36:35.455Z,102357.56
2023-01-28T22:39:04.449Z,102365.44
2023-01-28T22:41:32.531Z,102364.34
2023-01-28T22:44:01.564Z,102365.69
2023-01-28T22:46:29.306Z,102370.16
2023-01-28T22:48:56.903Z,102364.97
2023-01-28T22:51:25.894Z,102353.41
2023-01-28T22:53:54.686Z,102350.47
2023-01-28T22:56:24.106Z,102350.97
2023-01-28T22:58:55.650Z,102353.88
2023-01-28T23:01:23.281Z,102348.78
2023-01-28T23:03:53.336Z,102353.22
2023-01-28T23:06:22.749Z,102353.81
2023-01-28T23:08:50.777Z,102348.91
2023-01-28T23:11:27.209Z,102348.41
2023-01-28T23:14:14.566Z,102343.38
2023-01-28T23:16:59.930Z,102334.59
2023-01-28T23:19:45.032Z,102339.47
2023-01-28T23:22:31.905Z,102330.50
2023-01-28T23:24:59.685Z,102333.00
2023-01-28T23:27:28.475Z,102323.53
2023-01-28T23:29:55.989Z,102320.09
2023-01-28T23:32:24.074Z,102319.94
2023-01-28T23:34:51.892Z,102314.66
2023-01-28T23:37:19.380Z,102307.41
2023-01-28T23:39:46.854Z,102307.84
2023-01-28T23:42:16.121Z,102297.53
2023-01-28T23:44:45.515Z,102309.03
2023-01-28T23:47:13.430Z,102298.13
2023-01-28T23:49:41.028Z,102297.31
2023-01-28T23:52:09.407Z,102298.50
2023-01-28T23:54:37.059Z,102297.28
2023-01-28T23:57:05.140Z,102286.44
2023-01-28T23:59:32.773Z,102283.13
